Terminal Aerodrome Forecast
Issued by NWS

Home | Current Version | Previous Version | Text Only | Print | Product List | Glossary On
Versions: 1 2 3 4 5 6 7 8 9 10 11 12 13 14 15
968
FTUS44 KBMX 291122 CCB
TAFANB
TAF COR
KANB 291122Z 2911/3012 13007KT P6SM VCSH BKN021 BKN050
     FM291400 15008KT 6SM -RA BKN020 BKN040
     FM291600 15009KT 4SM SHRA VCTS BKN015CB OVC035
     FM300300 16002KT 6SM BR VCSH OVC007 PROB30 3008/3012 4SM TSRA
      BKN007CB OVC025=

USA.gov is the U.S. government's official web portal to all federal, state and local government web resources and services.